Time;durP1;ratioP1;P1;durP2;ratioP2;P2;SDS_P1;SDS_P2;PMS_P1;PMS_P2;Temp;Humidity;BMP_temperature;BMP_pressure;BME280_temperature;BME280_humidity;BME280_pressure;Samples;Min_cycle;Max_cycle;Signal;HPM_P1;HPM_P2
2023/12/09 00:01:11;;;;;;;0.40;0.40;;;;;;;4.90;100.00;99034.06;5089166;28;20093;-59
2023/12/09 00:03:38;;;;;;;0.30;0.30;;;;;;;4.92;100.00;99037.31;5085513;28;20113;-60
2023/12/09 00:06:07;;;;;;;0.32;0.32;;;;;;;4.88;100.00;99036.09;5087143;28;20040;-59
2023/12/09 00:08:34;;;;;;;0.47;0.47;;;;;;;4.85;100.00;99030.41;5087722;28;20040;-59
2023/12/09 00:11:01;;;;;;;0.55;0.55;;;;;;;4.82;100.00;99026.34;5091263;28;20079;-59
2023/12/09 00:13:28;;;;;;;0.40;0.40;;;;;;;4.80;100.00;99028.38;5085998;28;20071;-59
2023/12/09 00:15:55;;;;;;;0.40;0.40;;;;;;;4.83;100.00;99037.78;5088827;28;20048;-58
2023/12/09 00:18:22;;;;;;;0.40;0.40;;;;;;;4.83;100.00;99033.25;5091384;28;20492;-59
2023/12/09 00:20:49;;;;;;;0.30;0.30;;;;;;;4.93;100.00;99038.94;5089815;28;20047;-58
2023/12/09 00:23:18;;;;;;;0.40;0.40;;;;;;;5.01;100.00;99040.53;5089190;28;20047;-59
2023/12/09 00:25:45;;;;;;;0.30;0.30;;;;;;;5.07;100.00;99030.94;5093002;28;20136;-59
2023/12/09 00:28:12;;;;;;;0.30;0.30;;;;;;;5.14;100.00;99031.69;5090236;28;20069;-59
2023/12/09 00:30:39;;;;;;;0.40;0.40;;;;;;;5.12;100.00;99031.13;5094152;28;20043;-59
2023/12/09 00:33:06;;;;;;;0.30;0.30;;;;;;;5.11;100.00;99034.78;5095151;28;20446;-59
2023/12/09 00:35:33;;;;;;;0.50;0.50;;;;;;;5.12;100.00;99034.59;5091537;28;20040;-59
2023/12/09 00:38:00;;;;;;;0.45;0.45;;;;;;;5.09;100.00;99026.22;5092035;28;20979;-59
2023/12/09 00:40:28;;;;;;;0.40;0.40;;;;;;;5.05;100.00;99030.34;5094397;28;20044;-58
2023/12/09 00:42:55;;;;;;;0.50;0.50;;;;;;;5.02;100.00;99020.94;5093020;28;20127;-58
2023/12/09 00:45:24;;;;;;;0.40;0.40;;;;;;;5.04;100.00;99018.06;5090846;28;20071;-59
2023/12/09 00:47:51;;;;;;;0.40;0.40;;;;;;;5.04;100.00;99013.59;5097737;28;20043;-59
2023/12/09 00:50:18;;;;;;;0.40;0.40;;;;;;;4.95;100.00;99013.00;5089504;28;20055;-58
2023/12/09 00:52:45;;;;;;;0.50;0.50;;;;;;;5.04;100.00;99015.41;5091538;28;20089;-58
2023/12/09 00:55:12;;;;;;;0.60;0.60;;;;;;;5.04;100.00;99007.44;5094080;28;20040;-59
2023/12/09 00:57:41;;;;;;;0.45;0.45;;;;;;;5.07;100.00;99012.34;5098210;28;20054;-59
2023/12/09 01:00:08;;;;;;;0.30;0.30;;;;;;;5.03;100.00;99016.44;5091657;28;20401;-59
2023/12/09 01:02:38;;;;;;;0.40;0.40;;;;;;;5.03;100.00;99019.09;5090361;28;20135;-59
2023/12/09 01:05:06;;;;;;;0.20;0.20;;;;;;;5.05;100.00;99025.81;5092796;28;20042;-59
2023/12/09 01:07:33;;;;;;;0.30;0.30;;;;;;;5.00;100.00;99046.09;5101009;28;20057;-59
2023/12/09 01:10:00;;;;;;;0.30;0.30;;;;;;;4.96;100.00;99054.44;5093684;28;20052;-59
2023/12/09 01:12:27;;;;;;;0.30;0.30;;;;;;;4.93;100.00;99054.88;5093706;28;20044;-59
2023/12/09 01:14:55;;;;;;;0.30;0.30;;;;;;;4.98;100.00;99052.41;5091032;28;20048;-58
2023/12/09 01:17:22;;;;;;;0.50;0.50;;;;;;;5.05;100.00;99048.94;5096463;28;20101;-59
2023/12/09 01:19:49;;;;;;;0.40;0.40;;;;;;;5.04;100.00;99050.78;5093993;28;20089;-59
2023/12/09 01:22:16;;;;;;;0.30;0.30;;;;;;;4.97;100.00;99058.75;5094497;28;20530;-59
2023/12/09 01:24:43;;;;;;;0.50;0.50;;;;;;;5.05;100.00;99054.25;5096599;28;20527;-59
2023/12/09 01:27:10;;;;;;;0.43;0.43;;;;;;;4.99;100.00;99053.22;5095507;28;20040;-59
2023/12/09 01:29:37;;;;;;;0.40;0.40;;;;;;;4.98;100.00;99043.63;5094228;28;20048;-59
2023/12/09 01:32:06;;;;;;;0.40;0.40;;;;;;;5.02;100.00;99036.88;5098868;28;20058;-59
2023/12/09 01:34:34;;;;;;;0.50;0.50;;;;;;;5.04;100.00;99034.84;5099147;28;20078;-59
2023/12/09 01:37:01;;;;;;;0.40;0.40;;;;;;;5.03;100.00;99043.81;5090881;28;20048;-59
2023/12/09 01:39:28;;;;;;;0.43;0.43;;;;;;;4.94;100.00;99045.91;5091555;28;20043;-59
2023/12/09 01:41:56;;;;;;;0.40;0.40;;;;;;;4.98;100.00;99052.41;5092757;28;20335;-58
2023/12/09 01:44:23;;;;;;;0.50;0.50;;;;;;;4.94;100.00;99051.22;5094227;28;20035;-59
2023/12/09 01:46:50;;;;;;;0.40;0.40;;;;;;;4.93;100.00;99064.69;5089595;28;20478;-59
2023/12/09 01:49:18;;;;;;;0.40;0.40;;;;;;;4.90;100.00;99057.97;5098592;28;20158;-59
2023/12/09 01:51:45;;;;;;;0.30;0.30;;;;;;;4.90;100.00;99055.31;5093981;28;20430;-59
2023/12/09 01:54:12;;;;;;;0.40;0.40;;;;;;;5.00;100.00;99043.44;5099356;28;20068;-59
2023/12/09 01:56:39;;;;;;;0.40;0.40;;;;;;;4.94;100.00;99051.22;5092504;28;20046;-59
2023/12/09 01:59:06;;;;;;;0.40;0.40;;;;;;;4.92;100.00;99057.75;5092731;28;20036;-59
2023/12/09 02:01:33;;;;;;;0.32;0.32;;;;;;;4.92;100.00;99058.56;5102561;28;20124;-59
2023/12/09 02:04:00;;;;;;;0.50;0.50;;;;;;;4.91;100.00;99051.63;5098620;28;20395;-59
2023/12/09 02:06:29;;;;;;;0.40;0.40;;;;;;;4.85;100.00;99057.78;5093356;28;20197;-59
2023/12/09 02:08:56;;;;;;;0.45;0.45;;;;;;;4.77;100.00;99047.41;5095754;28;20139;-59
2023/12/09 02:11:25;;;;;;;0.50;0.50;;;;;;;4.65;100.00;99051.72;5050349;28;20139;-58
2023/12/09 02:13:59;;;;;;;0.40;0.40;;;;;;;4.65;100.00;99038.44;5053331;28;20143;-59
2023/12/09 02:16:30;;;;;;;0.43;0.43;;;;;;;4.59;100.00;99041.91;5044365;28;20153;-59
2023/12/09 02:18:57;;;;;;;0.40;0.40;;;;;;;4.61;100.00;99042.53;5051578;28;20132;-59
2023/12/09 02:21:24;;;;;;;0.32;0.32;;;;;;;4.53;100.00;99033.75;5049657;28;20045;-59
2023/12/09 02:23:52;;;;;;;0.30;0.30;;;;;;;4.47;100.00;99023.97;5059270;28;20056;-59
2023/12/09 02:26:21;;;;;;;0.35;0.35;;;;;;;4.45;100.00;99018.06;5049318;28;20064;-58
2023/12/09 02:28:52;;;;;;;0.32;0.32;;;;;;;4.30;100.00;99018.28;5053091;28;20052;-59
2023/12/09 02:31:22;;;;;;;0.50;0.50;;;;;;;4.36;100.00;99006.03;5047452;28;20129;-59
2023/12/09 02:33:49;;;;;;;0.40;0.40;;;;;;;4.44;100.00;98997.03;5052279;28;20155;-59
2023/12/09 02:36:17;;;;;;;0.40;0.40;;;;;;;4.37;100.00;98997.06;5049014;28;20113;-59
2023/12/09 02:38:44;;;;;;;0.60;0.60;;;;;;;4.26;100.00;98989.72;5057190;28;20060;-59
2023/12/09 02:41:13;;;;;;;0.40;0.40;;;;;;;4.20;100.00;98986.06;5055622;28;20052;-59
2023/12/09 02:43:41;;;;;;;0.50;0.50;;;;;;;4.19;100.00;98992.38;5053564;28;20139;-58
2023/12/09 02:46:12;;;;;;;0.40;0.40;;;;;;;4.20;100.00;99001.19;5052382;28;20056;-59
2023/12/09 02:48:39;;;;;;;0.40;0.40;;;;;;;4.14;100.00;98996.69;5052899;28;20048;-59
2023/12/09 02:51:07;;;;;;;0.50;0.50;;;;;;;4.24;100.00;99005.03;5048983;28;20125;-60
2023/12/09 02:53:34;;;;;;;0.40;0.40;;;;;;;4.31;100.00;99008.50;5057951;28;20051;-59
2023/12/09 02:56:01;;;;;;;0.47;0.47;;;;;;;4.33;100.00;99017.06;5048081;28;20127;-58
2023/12/09 02:58:29;;;;;;;0.40;0.40;;;;;;;4.39;100.00;99010.91;5049018;28;20045;-58
2023/12/09 03:00:56;;;;;;;0.50;0.50;;;;;;;4.39;100.00;99007.47;5046629;28;20533;-59
2023/12/09 03:03:23;;;;;;;0.45;0.45;;;;;;;4.39;100.00;99013.56;5051546;28;20386;-59
2023/12/09 03:05:50;;;;;;;0.47;0.47;;;;;;;4.42;100.00;99010.53;5058995;28;20140;-59
2023/12/09 03:08:17;;;;;;;0.35;0.35;;;;;;;4.37;100.00;98999.72;5046560;28;20051;-59
2023/12/09 03:10:44;;;;;;;0.60;0.60;;;;;;;4.40;100.00;99004.59;5081695;28;20054;-59
2023/12/09 03:13:12;;;;;;;0.40;0.40;;;;;;;4.36;100.00;99006.03;5093103;28;20053;-59
2023/12/09 03:15:40;;;;;;;0.40;0.40;;;;;;;4.44;100.00;98991.72;5094976;28;20836;-59
2023/12/09 03:18:07;;;;;;;0.40;0.40;;;;;;;4.48;100.00;98983.13;5088794;28;20494;-59
2023/12/09 03:20:34;;;;;;;0.50;0.50;;;;;;;4.47;100.00;98981.53;5087011;28;20139;-59
2023/12/09 03:23:01;;;;;;;0.30;0.30;;;;;;;4.47;100.00;98973.56;5097695;28;20098;-59
2023/12/09 03:25:28;;;;;;;0.40;0.40;;;;;;;4.45;100.00;98967.66;5086627;28;20145;-59
2023/12/09 03:27:55;;;;;;;0.40;0.40;;;;;;;4.46;100.00;98974.56;5087290;28;20140;-58
2023/12/09 03:30:22;;;;;;;0.60;0.60;;;;;;;4.47;100.00;98962.94;5090105;28;20044;-59
2023/12/09 03:32:50;;;;;;;0.52;0.52;;;;;;;4.56;100.00;98957.41;5095423;28;20140;-58
2023/12/09 03:35:17;;;;;;;0.40;0.40;;;;;;;4.60;100.00;98961.28;5089299;28;20440;-58
2023/12/09 03:37:44;;;;;;;0.32;0.32;;;;;;;4.66;100.00;98941.84;5091425;28;20346;-59
2023/12/09 03:40:12;;;;;;;0.50;0.50;;;;;;;4.65;100.00;98950.84;5088924;28;20036;-59
2023/12/09 03:42:39;;;;;;;0.57;0.57;;;;;;;4.69;100.00;98955.53;5089055;28;20683;-59
2023/12/09 03:45:07;;;;;;;0.50;0.50;;;;;;;4.62;100.00;98962.69;5095222;28;20044;-59
2023/12/09 03:47:34;;;;;;;0.50;0.50;;;;;;;4.64;100.00;98959.81;5097147;28;20465;-59
2023/12/09 03:50:03;;;;;;;0.45;0.45;;;;;;;4.50;100.00;98967.81;5091621;28;20047;-59
2023/12/09 03:52:30;;;;;;;0.40;0.40;;;;;;;4.61;100.00;98966.34;5097192;28;20794;-58
2023/12/09 03:54:58;;;;;;;0.30;0.30;;;;;;;4.61;100.00;98976.16;5094267;28;20058;-59
2023/12/09 03:57:26;;;;;;;0.50;0.50;;;;;;;4.61;100.00;98976.97;5083389;28;20557;-59
2023/12/09 03:59:53;;;;;;;0.30;0.30;;;;;;;4.66;100.00;98968.38;5089830;28;20491;-59
2023/12/09 04:02:20;;;;;;;0.40;0.40;;;;;;;4.68;100.00;98971.66;5092053;28;20093;-59
2023/12/09 04:04:47;;;;;;;0.40;0.40;;;;;;;4.60;100.00;98954.13;5089621;28;20155;-59
2023/12/09 04:07:15;;;;;;;0.40;0.40;;;;;;;4.60;100.00;98964.72;5092988;28;20048;-59
2023/12/09 04:09:43;;;;;;;0.50;0.50;;;;;;;4.49;100.00;98963.56;5091351;28;20141;-58
2023/12/09 04:12:10;;;;;;;0.35;0.35;;;;;;;4.53;100.00;98954.13;5090581;28;20036;-58
2023/12/09 04:14:37;;;;;;;0.40;0.40;;;;;;;4.48;100.00;98951.28;5087833;28;20058;-57
2023/12/09 04:17:04;;;;;;;0.55;0.55;;;;;;;4.42;100.00;98951.31;5088808;28;20522;-58
2023/12/09 04:19:31;;;;;;;0.50;0.50;;;;;;;4.38;100.00;98950.13;5091705;28;20625;-59
2023/12/09 04:21:58;;;;;;;0.40;0.40;;;;;;;4.46;100.00;98955.19;5091279;28;20664;-57
2023/12/09 04:24:26;;;;;;;0.40;0.40;;;;;;;4.39;100.00;98939.28;5090482;28;20436;-58
2023/12/09 04:26:54;;;;;;;0.60;0.60;;;;;;;4.44;100.00;98934.19;5088151;28;20566;-58
2023/12/09 04:29:21;;;;;;;0.40;0.40;;;;;;;4.49;100.00;98925.56;5093339;28;20048;-58
2023/12/09 04:31:48;;;;;;;0.40;0.40;;;;;;;4.58;100.00;98928.81;5098633;28;20039;-59
2023/12/09 04:34:15;;;;;;;0.50;0.50;;;;;;;4.68;100.00;98918.56;5098145;28;20673;-58
2023/12/09 04:36:42;;;;;;;0.57;0.57;;;;;;;4.67;100.00;98923.06;5097915;28;20049;-58
2023/12/09 04:39:10;;;;;;;0.50;0.50;;;;;;;4.68;100.00;98929.16;5086845;28;20097;-58
2023/12/09 04:41:38;;;;;;;0.38;0.38;;;;;;;4.65;100.00;98930.41;5095193;28;20051;-57
2023/12/09 04:44:05;;;;;;;0.45;0.45;;;;;;;4.66;100.00;98924.06;5091000;28;20486;-58
2023/12/09 04:46:32;;;;;;;0.40;0.40;;;;;;;4.69;100.00;98915.69;5096467;28;20054;-60
2023/12/09 04:48:59;;;;;;;0.57;0.57;;;;;;;4.71;100.00;98907.50;5096020;28;21700;-57
2023/12/09 04:51:26;;;;;;;0.32;0.32;;;;;;;4.75;100.00;98911.38;5094405;28;20383;-60
2023/12/09 04:53:53;;;;;;;0.50;0.50;;;;;;;4.78;100.00;98913.59;5091246;28;20093;-60
2023/12/09 04:56:20;;;;;;;0.50;0.50;;;;;;;4.84;100.00;98911.91;5101987;28;20047;-59
2023/12/09 04:58:49;;;;;;;0.43;0.43;;;;;;;4.89;100.00;98902.31;5095285;28;20451;-59
2023/12/09 05:01:16;;;;;;;0.40;0.40;;;;;;;4.85;100.00;98910.91;5095494;28;20048;-59
2023/12/09 05:03:43;;;;;;;0.50;0.50;;;;;;;4.88;100.00;98911.28;5088424;28;20386;-59
2023/12/09 05:06:10;;;;;;;0.40;0.40;;;;;;;4.84;100.00;98912.75;5092363;28;20478;-59
2023/12/09 05:08:39;;;;;;;0.38;0.38;;;;;;;4.86;100.00;98907.22;5099666;28;20046;-59
2023/12/09 05:11:06;;;;;;;0.45;0.45;;;;;;;4.80;100.00;98906.25;5092065;28;20143;-59
2023/12/09 05:13:33;;;;;;;0.50;0.50;;;;;;;4.85;100.00;98906.41;5097858;28;20053;-59
2023/12/09 05:16:02;;;;;;;0.45;0.45;;;;;;;4.90;100.00;98905.78;5098177;28;20047;-59
2023/12/09 05:18:29;;;;;;;0.50;0.50;;;;;;;4.83;100.00;98897.84;5094133;28;20054;-59
2023/12/09 05:20:56;;;;;;;0.28;0.28;;;;;;;4.86;100.00;98888.63;5098783;27;20460;-59
2023/12/09 05:23:24;;;;;;;0.50;0.50;;;;;;;4.92;100.00;98888.59;5097042;28;20073;-59
2023/12/09 05:25:52;;;;;;;0.60;0.60;;;;;;;4.91;100.00;98884.28;5097099;27;20482;-59
2023/12/09 05:28:19;;;;;;;0.40;0.40;;;;;;;4.88;100.00;98894.53;5092974;28;20478;-58
2023/12/09 05:30:46;;;;;;;0.40;0.40;;;;;;;4.97;100.00;98896.75;5089922;28;20051;-58
2023/12/09 05:33:15;;;;;;;0.50;0.50;;;;;;;5.11;100.00;98886.00;5089753;28;20445;-59
2023/12/09 05:35:42;;;;;;;0.43;0.43;;;;;;;5.11;100.00;98884.16;5089064;28;20051;-59
2023/12/09 05:38:09;;;;;;;0.40;0.40;;;;;;;5.07;100.00;98871.56;5091681;28;20130;-59
2023/12/09 05:40:37;;;;;;;0.40;0.40;;;;;;;5.05;100.00;98870.94;5087456;28;20039;-59
2023/12/09 05:43:04;;;;;;;0.40;0.40;;;;;;;5.15;100.00;98876.59;5088169;28;20147;-59
2023/12/09 05:45:31;;;;;;;0.38;0.38;;;;;;;5.09;100.00;98862.34;5095306;28;20050;-60
2023/12/09 05:47:58;;;;;;;0.45;0.45;;;;;;;5.03;100.00;98868.50;5098241;28;20044;-60
2023/12/09 05:50:27;;;;;;;0.40;0.40;;;;;;;5.10;100.00;98869.28;5089776;28;20044;-59
2023/12/09 05:52:53;;;;;;;0.30;0.30;;;;;;;5.10;100.00;98869.28;5088039;28;20131;-59
2023/12/09 05:55:21;;;;;;;0.38;0.38;;;;;;;5.09;100.00;98861.50;5091538;28;20044;-60
2023/12/09 05:57:48;;;;;;;0.22;0.22;;;;;;;5.02;100.00;98850.09;5093182;28;20086;-59
2023/12/09 06:00:16;;;;;;;0.50;0.50;;;;;;;5.05;100.00;98849.69;5088738;28;20317;-60
2023/12/09 06:02:43;;;;;;;0.38;0.38;;;;;;;5.19;100.00;98846.72;5100689;28;20124;-59
2023/12/09 06:05:10;;;;;;;0.30;0.30;;;;;;;5.20;100.00;98847.53;5087484;28;20048;-58
2023/12/09 06:07:39;;;;;;;0.30;0.30;;;;;;;5.33;100.00;98852.72;5087280;28;20860;-58
2023/12/09 06:10:06;;;;;;;0.40;0.40;;;;;;;5.26;100.00;98859.13;5085828;28;20347;-58
2023/12/09 06:12:33;;;;;;;0.50;0.50;;;;;;;5.24;100.00;98863.84;5092443;28;20048;-58
2023/12/09 06:15:00;;;;;;;0.43;0.43;;;;;;;5.31;100.00;98859.28;5089440;28;20051;-58
2023/12/09 06:17:27;;;;;;;0.40;0.40;;;;;;;5.29;100.00;98862.19;5086753;28;20047;-58
2023/12/09 06:19:55;;;;;;;0.40;0.40;;;;;;;5.34;100.00;98865.00;5084991;28;20493;-58
2023/12/09 06:22:22;;;;;;;0.35;0.35;;;;;;;5.34;100.00;98859.69;5090538;28;20690;-59
2023/12/09 06:24:51;;;;;;;0.40;0.40;;;;;;;5.41;100.00;98860.41;5092465;28;20039;-59
2023/12/09 06:27:18;;;;;;;0.40;0.40;;;;;;;5.40;100.00;98856.16;5087559;28;20313;-58
2023/12/09 06:29:46;;;;;;;0.40;0.40;;;;;;;5.32;100.00;98855.63;5093552;28;20053;-59
2023/12/09 06:32:13;;;;;;;0.40;0.40;;;;;;;5.33;100.00;98858.03;5094635;28;20498;-59
2023/12/09 06:34:41;;;;;;;0.38;0.38;;;;;;;5.36;100.00;98859.47;5088964;28;20044;-59
2023/12/09 06:37:08;;;;;;;0.25;0.25;;;;;;;5.24;100.00;98858.53;5087343;28;20082;-58
2023/12/09 06:39:35;;;;;;;0.40;0.40;;;;;;;5.24;100.00;98870.00;5091471;28;20117;-58
2023/12/09 06:42:05;;;;;;;0.40;0.40;;;;;;;5.24;100.00;98862.03;5098251;27;20540;-58
2023/12/09 06:44:32;;;;;;;0.40;0.40;;;;;;;5.27;100.00;98864.25;5095207;28;20310;-58
2023/12/09 06:46:59;;;;;;;0.40;0.40;;;;;;;5.32;100.00;98851.13;5093625;28;20418;-58
2023/12/09 06:49:26;;;;;;;0.40;0.40;;;;;;;5.34;100.00;98851.72;5094800;28;20166;-58
2023/12/09 06:51:53;;;;;;;0.40;0.40;;;;;;;5.36;100.00;98846.97;5093150;28;20031;-58
2023/12/09 06:54:20;;;;;;;0.30;0.30;;;;;;;5.36;100.00;98862.13;5086334;28;20176;-58
2023/12/09 06:56:47;;;;;;;0.45;0.45;;;;;;;5.35;100.00;98869.28;5092949;28;20128;-58
2023/12/09 06:59:15;;;;;;;0.40;0.40;;;;;;;5.35;100.00;98850.69;5091708;28;20124;-58
2023/12/09 07:01:43;;;;;;;0.40;0.40;;;;;;;5.39;100.00;98851.88;5090680;28;20050;-59
2023/12/09 07:04:12;;;;;;;0.40;0.40;;;;;;;5.38;100.00;98849.44;5087629;28;20044;-58
2023/12/09 07:06:39;;;;;;;0.40;0.40;;;;;;;5.37;100.00;98847.81;5093892;28;20051;-58
2023/12/09 07:09:08;;;;;;;0.40;0.40;;;;;;;5.44;100.00;98847.72;5089611;28;20497;-58
2023/12/09 07:11:35;;;;;;;0.40;0.40;;;;;;;5.40;100.00;98844.72;5092032;28;20557;-58
2023/12/09 07:14:02;;;;;;;0.30;0.30;;;;;;;5.49;100.00;98839.91;5089146;28;20051;-58
2023/12/09 07:16:31;;;;;;;0.50;0.50;;;;;;;5.50;100.00;98836.25;5095657;28;20388;-58
2023/12/09 07:18:59;;;;;;;0.30;0.30;;;;;;;5.48;100.00;98827.66;5086013;28;20143;-58
2023/12/09 07:21:27;;;;;;;0.28;0.28;;;;;;;5.39;100.00;98819.97;5091783;28;20113;-58
2023/12/09 07:23:54;;;;;;;0.35;0.35;;;;;;;5.43;100.00;98824.84;5090623;28;20506;-58
2023/12/09 07:26:21;;;;;;;0.50;0.50;;;;;;;5.45;100.00;98822.78;5087273;28;20828;-58
2023/12/09 07:28:48;;;;;;;0.40;0.40;;;;;;;5.43;100.00;98819.53;5091915;28;20524;-59
2023/12/09 07:31:15;;;;;;;0.40;0.40;;;;;;;5.44;100.00;98826.47;5096642;28;20062;-58
2023/12/09 07:33:43;;;;;;;0.50;0.50;;;;;;;5.49;100.00;98808.84;5092790;28;20198;-58
2023/12/09 07:36:10;;;;;;;0.40;0.40;;;;;;;5.39;100.00;98809.34;5082724;28;20620;-58
2023/12/09 07:38:37;;;;;;;0.50;0.50;;;;;;;5.48;100.00;98806.41;5088403;28;20141;-58
2023/12/09 07:41:05;;;;;;;0.40;0.40;;;;;;;5.41;100.00;98803.81;5089917;28;20080;-58
2023/12/09 07:43:32;;;;;;;0.38;0.38;;;;;;;5.39;100.00;98798.72;5093541;28;20070;-58
2023/12/09 07:46:00;;;;;;;0.30;0.30;;;;;;;5.45;100.00;98790.91;5090795;28;20036;-58
2023/12/09 07:48:30;;;;;;;0.50;0.50;;;;;;;5.50;100.00;98777.75;5101193;28;20093;-58
2023/12/09 07:50:59;;;;;;;0.30;0.30;;;;;;;5.48;100.00;98779.81;5097404;28;20055;-58
2023/12/09 07:53:26;;;;;;;0.30;0.30;;;;;;;5.44;100.00;98776.78;5090918;28;20314;-58
2023/12/09 07:55:53;;;;;;;0.40;0.40;;;;;;;5.30;100.00;98773.44;5093050;28;22995;-59
2023/12/09 07:58:22;;;;;;;0.40;0.40;;;;;;;5.34;100.00;98774.66;5083334;28;20086;-59
2023/12/09 08:00:49;;;;;;;0.35;0.35;;;;;;;5.29;100.00;98771.84;5089998;28;20093;-58
2023/12/09 08:03:16;;;;;;;0.35;0.35;;;;;;;5.46;100.00;98768.59;5088368;28;20589;-59
2023/12/09 08:05:43;;;;;;;0.40;0.40;;;;;;;5.45;100.00;98745.72;5091373;28;20066;-59
2023/12/09 08:08:11;;;;;;;0.40;0.40;;;;;;;5.50;100.00;98743.22;5090907;28;20100;-58
2023/12/09 08:10:38;;;;;;;0.40;0.40;;;;;;;5.54;100.00;98742.53;5046334;28;1270894;-58
2023/12/09 08:13:07;;;;;;;0.40;0.40;;;;;;;5.51;100.00;98736.84;5092864;28;20048;-58
2023/12/09 08:15:35;;;;;;;0.32;0.32;;;;;;;5.56;100.00;98735.13;5088454;28;20046;-58
2023/12/09 08:18:03;;;;;;;0.40;0.40;;;;;;;5.49;100.00;98733.59;5087014;28;20055;-58
2023/12/09 08:20:30;;;;;;;0.50;0.50;;;;;;;5.50;100.00;98724.59;5093315;28;20143;-58
2023/12/09 08:22:57;;;;;;;0.40;0.40;;;;;;;5.47;100.00;98727.72;5096797;28;20400;-58
2023/12/09 08:25:25;;;;;;;0.50;0.50;;;;;;;5.42;100.00;98720.41;5088011;28;20137;-58
2023/12/09 08:27:52;;;;;;;0.60;0.60;;;;;;;5.45;100.00;98705.84;5090674;28;20056;-58
2023/12/09 08:30:19;;;;;;;0.55;0.55;;;;;;;5.46;100.00;98696.81;5089342;28;20044;-58
2023/12/09 08:32:46;;;;;;;0.50;0.50;;;;;;;5.41;100.00;98689.50;5095246;28;20108;-58
2023/12/09 08:35:13;;;;;;;0.40;0.40;;;;;;;5.48;100.00;98673.50;5086008;28;20127;-58
2023/12/09 08:37:40;;;;;;;0.40;0.40;;;;;;;5.47;100.00;98677.22;5095533;28;20044;-58
2023/12/09 08:40:10;;;;;;;0.60;0.60;;;;;;;5.47;100.00;98678.00;5090382;28;20048;-58
2023/12/09 08:42:40;;;;;;;0.45;0.45;;;;;;;5.51;100.00;98678.38;5096874;28;20047;-58
2023/12/09 08:45:08;;;;;;;0.40;0.40;;;;;;;5.59;100.00;98684.22;5096234;28;20556;-60
2023/12/09 08:47:35;;;;;;;0.40;0.40;;;;;;;5.58;100.00;98684.41;5085401;27;20043;-60
2023/12/09 08:50:04;;;;;;;0.50;0.50;;;;;;;5.57;100.00;98677.50;5088707;28;20653;-59
2023/12/09 08:52:31;;;;;;;0.40;0.40;;;;;;;5.68;100.00;98679.38;5092114;28;20385;-59
2023/12/09 08:54:58;;;;;;;0.50;0.50;;;;;;;5.69;100.00;98667.72;5099599;28;20126;-59
2023/12/09 08:57:25;;;;;;;0.40;0.40;;;;;;;5.72;100.00;98653.16;5093936;28;20150;-59
2023/12/09 08:59:53;;;;;;;0.60;0.60;;;;;;;5.81;100.00;98646.47;5095142;28;20043;-58
2023/12/09 09:02:20;;;;;;;0.40;0.40;;;;;;;5.82;100.00;98648.13;5091658;28;20048;-59
2023/12/09 09:04:47;;;;;;;0.40;0.40;;;;;;;5.77;100.00;98654.13;5083508;28;20067;-60
2023/12/09 09:07:15;;;;;;;0.52;0.52;;;;;;;5.76;100.00;98652.47;5090043;28;20517;-61
2023/12/09 09:09:42;;;;;;;0.50;0.50;;;;;;;5.72;100.00;98653.97;5092057;28;20043;-60
2023/12/09 09:12:09;;;;;;;0.60;0.60;;;;;;;5.72;100.00;98653.97;5095147;28;20398;-59
2023/12/09 09:14:36;;;;;;;0.52;0.52;;;;;;;5.84;100.00;98668.13;5098500;28;20043;-59
2023/12/09 09:17:04;;;;;;;0.40;0.40;;;;;;;5.95;100.00;98665.78;5095696;28;20051;-59
2023/12/09 09:19:31;;;;;;;0.40;0.40;;;;;;;6.29;100.00;98666.09;5093112;28;20044;-59
2023/12/09 09:21:58;;;;;;;0.40;0.40;;;;;;;6.13;100.00;98681.66;5099298;28;20169;-58
2023/12/09 09:24:25;;;;;;;0.43;0.43;;;;;;;6.51;100.00;98677.81;5092630;28;20058;-58
2023/12/09 09:26:52;;;;;;;0.50;0.50;;;;;;;6.90;100.00;98681.69;5094397;28;20044;-58
2023/12/09 09:29:20;;;;;;;0.40;0.40;;;;;;;6.75;100.00;98683.19;5097125;28;20604;-59
2023/12/09 09:31:47;;;;;;;0.40;0.40;;;;;;;6.84;100.00;98671.97;5087190;28;20047;-58
2023/12/09 09:34:15;;;;;;;0.40;0.40;;;;;;;7.68;100.00;98657.44;5092654;28;20032;-58
2023/12/09 09:36:42;;;;;;;0.60;0.60;;;;;;;7.25;100.00;98646.19;5091718;28;20623;-58
2023/12/09 09:39:11;;;;;;;0.35;0.35;;;;;;;7.42;100.00;98650.81;5091514;28;20039;-58
2023/12/09 09:41:45;;;;;;;0.40;0.40;;;;;;;7.10;100.00;98653.88;5087125;28;20047;-58
2023/12/09 09:44:12;;;;;;;0.40;0.40;;;;;;;7.26;100.00;98658.50;5108624;27;20129;-59
2023/12/09 09:46:39;;;;;;;0.30;0.30;;;;;;;7.21;100.00;98650.38;5089556;28;20116;-58
2023/12/09 09:49:06;;;;;;;0.40;0.40;;;;;;;7.14;100.00;98649.69;5093998;28;20043;-59
2023/12/09 09:51:35;;;;;;;0.32;0.32;;;;;;;7.32;100.00;98630.06;5099051;28;20458;-59
2023/12/09 09:54:09;;;;;;;0.32;0.32;;;;;;;7.27;100.00;98619.31;5100192;28;20078;-59
2023/12/09 09:56:37;;;;;;;0.30;0.30;;;;;;;6.52;100.00;98626.22;5086295;28;20048;-59
2023/12/09 09:59:04;;;;;;;0.30;0.30;;;;;;;6.61;100.00;98624.00;5094669;28;20569;-58
2023/12/09 10:01:32;;;;;;;0.30;0.30;;;;;;;6.96;100.00;98620.50;5089104;28;20420;-59
2023/12/09 10:03:59;;;;;;;0.30;0.30;;;;;;;6.58;100.00;98611.97;5093359;28;20571;-58
2023/12/09 10:06:26;;;;;;;0.30;0.30;;;;;;;6.63;100.00;98616.59;5089996;28;20088;-59
2023/12/09 10:08:55;;;;;;;0.40;0.40;;;;;;;6.75;100.00;98601.44;5091111;28;20055;-59
2023/12/09 10:11:22;;;;;;;0.40;0.40;;;;;;;6.54;100.00;98588.69;5091881;28;20043;-59
2023/12/09 10:13:49;;;;;;;0.47;0.47;;;;;;;6.78;100.00;98581.50;5098275;28;20565;-59
2023/12/09 10:16:17;;;;;;;0.38;0.38;;;;;;;6.64;100.00;98581.75;5096473;28;20109;-59
2023/12/09 10:18:46;;;;;;;0.30;0.30;;;;;;;6.52;100.00;98561.50;5097208;28;20063;-59
2023/12/09 10:21:13;;;;;;;0.40;0.40;;;;;;;6.69;100.00;98544.59;5078910;28;20071;-59
2023/12/09 10:23:40;;;;;;;0.30;0.30;;;;;;;6.73;100.00;98541.44;5091259;28;20820;-58
2023/12/09 10:26:09;;;;;;;0.47;0.47;;;;;;;6.74;100.00;98521.75;5098400;28;20476;-58
2023/12/09 10:28:36;;;;;;;0.50;0.50;;;;;;;6.80;100.00;98510.97;5092148;28;20230;-59
2023/12/09 10:31:03;;;;;;;0.40;0.40;;;;;;;6.58;100.00;98508.13;5094963;28;20536;-59
2023/12/09 10:33:31;;;;;;;0.30;0.30;;;;;;;6.85;100.00;98497.75;5091405;28;20063;-59
2023/12/09 10:35:58;;;;;;;0.40;0.40;;;;;;;6.79;100.00;98487.22;5096245;28;20150;-59
2023/12/09 10:38:25;;;;;;;0.40;0.40;;;;;;;6.40;100.00;98473.66;5099312;28;20058;-58
2023/12/09 10:40:53;;;;;;;0.28;0.28;;;;;;;6.49;100.00;98466.94;5094142;28;20458;-58
2023/12/09 10:43:22;;;;;;;0.35;0.35;;;;;;;6.68;100.00;98460.41;5088431;28;20044;-58
2023/12/09 10:45:49;;;;;;;0.40;0.40;;;;;;;6.78;100.00;98443.00;5097319;28;20582;-59
2023/12/09 10:48:16;;;;;;;0.40;0.40;;;;;;;6.68;100.00;98439.09;5095454;28;20044;-58
2023/12/09 10:50:44;;;;;;;0.40;0.40;;;;;;;6.81;100.00;98426.53;5095557;28;20446;-59
2023/12/09 10:53:11;;;;;;;0.40;0.40;;;;;;;7.24;100.00;98426.03;5095059;28;20047;-58
2023/12/09 10:55:39;;;;;;;0.30;0.30;;;;;;;7.65;100.00;98418.69;5096378;28;20052;-59
2023/12/09 10:58:06;;;;;;;0.30;0.30;;;;;;;7.27;100.00;98420.19;5099256;28;20563;-58
2023/12/09 11:00:36;;;;;;;0.30;0.30;;;;;;;7.06;100.00;98412.88;5098067;28;20501;-58
2023/12/09 11:03:03;;;;;;;0.30;0.30;;;;;;;7.31;100.00;98404.53;5092127;28;20049;-58
2023/12/09 11:05:30;;;;;;;0.30;0.30;;;;;;;7.11;100.00;98408.47;5086703;28;20831;-58
2023/12/09 11:07:59;;;;;;;0.30;0.30;;;;;;;6.93;100.00;98413.19;5098199;28;20650;-58
2023/12/09 11:10:26;;;;;;;0.30;0.30;;;;;;;7.01;100.00;98400.28;5093610;28;20043;-58
2023/12/09 11:12:54;;;;;;;0.22;0.22;;;;;;;6.78;100.00;98390.53;5089174;28;20040;-58
2023/12/09 11:15:29;;;;;;;0.30;0.30;;;;;;;6.89;100.00;98370.25;5097248;28;20035;-58
2023/12/09 11:18:00;;;;;;;0.40;0.40;;;;;;;7.00;100.00;98366.69;5090683;28;20497;-58
2023/12/09 11:20:29;;;;;;;0.30;0.30;;;;;;;7.01;100.00;98362.97;5096133;28;20043;-58
2023/12/09 11:22:56;;;;;;;0.30;0.30;;;;;;;6.98;100.00;98374.13;5096644;28;20448;-58
2023/12/09 11:25:25;;;;;;;0.30;0.30;;;;;;;6.88;100.00;98390.72;5091379;28;20101;-59
2023/12/09 11:27:53;;;;;;;0.30;0.30;;;;;;;6.76;100.00;98375.84;5094843;28;20184;-59
2023/12/09 11:30:30;;;;;;;0.30;0.30;;;;;;;6.77;100.00;98372.16;5088006;28;20074;-58
2023/12/09 11:32:58;;;;;;;0.38;0.38;;;;;;;6.67;100.00;98362.13;5092901;28;20035;-58
2023/12/09 11:35:25;;;;;;;0.32;0.32;;;;;;;6.78;100.00;98355.13;5086825;28;20044;-58